Time;durP1;ratioP1;P1;durP2;ratioP2;P2;SDS_P1;SDS_P2;PMS_P1;PMS_P2;Temp;Humidity;BMP_temperature;BMP_pressure;BME280_temperature;BME280_humidity;BME280_pressure;Samples;Min_cycle;Max_cycle;Signal;HPM_P1;HPM_P2
2023/08/18 00:01:06;;;;;;;6.80;5.03;;;18.80;99.90;;;;;;491603;241;28824;-75
2023/08/18 00:03:07;;;;;;;5.97;5.53;;;18.80;99.90;;;;;;491554;241;28836;-74
2023/08/18 00:05:09;;;;;;;5.27;4.87;;;18.80;99.90;;;;;;491602;242;28803;-75
2023/08/18 00:07:10;;;;;;;5.70;5.20;;;18.70;99.90;;;;;;491593;241;29317;-72
2023/08/18 00:09:11;;;;;;;6.13;5.53;;;18.70;99.90;;;;;;491663;241;29727;-74
2023/08/18 00:11:12;;;;;;;5.70;5.30;;;18.70;99.90;;;;;;491564;241;29299;-75
2023/08/18 00:13:13;;;;;;;6.20;5.60;;;18.70;99.90;;;;;;491607;241;28815;-75
2023/08/18 00:15:15;;;;;;;5.90;5.40;;;18.70;99.90;;;;;;491574;241;28839;-75
2023/08/18 00:17:16;;;;;;;6.37;5.77;;;18.60;99.90;;;;;;491599;241;28812;-75
2023/08/18 00:19:17;;;;;;;8.97;6.00;;;18.60;99.90;;;;;;491578;242;28914;-74
2023/08/18 00:21:18;;;;;;;7.60;6.00;;;18.60;99.90;;;;;;491574;242;29369;-75
2023/08/18 00:23:20;;;;;;;6.97;5.90;;;18.60;99.90;;;;;;491587;241;29406;-75
2023/08/18 00:25:22;;;;;;;6.30;5.70;;;18.60;99.90;;;;;;491577;241;29280;-74
2023/08/18 00:27:23;;;;;;;6.30;5.80;;;18.50;99.90;;;;;;491528;240;29274;-74
2023/08/18 00:29:25;;;;;;;6.87;6.13;;;18.60;99.90;;;;;;493088;241;29267;-74
2023/08/18 00:31:27;;;;;;;6.83;6.20;;;18.50;99.90;;;;;;493148;241;28930;-74
2023/08/18 00:33:29;;;;;;;7.00;6.30;;;18.60;99.90;;;;;;493158;241;28809;-74
2023/08/18 00:35:30;;;;;;;6.67;6.07;;;18.60;99.90;;;;;;493165;241;28823;-73
2023/08/18 00:37:32;;;;;;;6.77;6.17;;;18.50;99.90;;;;;;493159;241;28819;-73
2023/08/18 00:39:33;;;;;;;7.10;6.20;;;18.50;99.90;;;;;;493144;241;29271;-74
2023/08/18 00:41:34;;;;;;;7.50;6.50;;;18.50;99.90;;;;;;493159;241;29268;-74
2023/08/18 00:43:35;;;;;;;6.97;6.27;;;18.40;99.90;;;;;;493158;241;29302;-74
2023/08/18 00:45:37;;;;;;;5.90;5.50;;;18.30;99.90;;;;;;493149;241;28925;-75
2023/08/18 00:47:38;;;;;;;6.50;6.00;;;18.30;99.90;;;;;;493145;241;28917;-74
2023/08/18 00:49:39;;;;;;;5.80;5.40;;;18.40;99.90;;;;;;493139;241;28914;-73
2023/08/18 00:51:41;;;;;;;6.27;5.77;;;18.30;99.90;;;;;;493151;241;28830;-75
2023/08/18 00:53:43;;;;;;;6.60;5.87;;;18.30;99.90;;;;;;493118;241;29282;-75
2023/08/18 00:55:44;;;;;;;7.30;6.60;;;18.30;99.90;;;;;;493139;241;28833;-75
2023/08/18 00:57:45;;;;;;;7.10;6.03;;;18.20;99.90;;;;;;493098;241;29412;-75
2023/08/18 00:59:47;;;;;;;6.17;5.67;;;18.20;99.90;;;;;;493168;241;29251;-75
2023/08/18 01:01:48;;;;;;;6.70;6.00;;;18.10;99.90;;;;;;493147;241;29278;-74
2023/08/18 01:03:49;;;;;;;6.23;5.50;;;18.20;99.90;;;;;;493130;241;28901;-74
2023/08/18 01:05:50;;;;;;;6.70;6.10;;;18.20;99.90;;;;;;493159;241;29314;-74
2023/08/18 01:07:52;;;;;;;8.60;6.10;;;18.20;99.90;;;;;;484576;245;29229;-75
2023/08/18 01:09:53;;;;;;;6.57;5.97;;;18.20;99.90;;;;;;484582;245;29312;-75
2023/08/18 01:11:54;;;;;;;7.00;6.40;;;18.20;99.90;;;;;;484569;245;29312;-73
2023/08/18 01:13:56;;;;;;;6.47;5.87;;;18.20;99.90;;;;;;484567;245;28851;-72
2023/08/18 01:15:58;;;;;;;6.60;6.00;;;18.20;99.90;;;;;;484575;245;29233;-74
2023/08/18 01:18:04;;;;;;;8.03;5.90;;;18.20;99.90;;;;;;484576;245;29222;-74
2023/08/18 01:20:01;;;;;;;9.00;6.73;;;18.10;99.90;;;;;;484384;245;29411;-75
2023/08/18 01:22:02;;;;;;;6.77;6.13;;;18.00;99.90;;;;;;484571;245;29235;-73
2023/08/18 01:24:04;;;;;;;6.53;5.77;;;18.00;99.90;;;;;;484532;245;28758;-74
2023/08/18 01:26:05;;;;;;;6.87;6.27;;;18.10;99.90;;;;;;484560;245;28751;-75
2023/08/18 01:28:06;;;;;;;14.37;6.20;;;18.10;99.90;;;;;;484544;245;28783;-75
2023/08/18 01:30:07;;;;;;;7.20;5.23;;;18.10;99.90;;;;;;484563;245;29261;-73
2023/08/18 01:32:09;;;;;;;6.93;6.20;;;18.10;99.90;;;;;;484564;245;29242;-75
2023/08/18 01:34:12;;;;;;;7.87;6.83;;;18.10;99.90;;;;;;484574;245;29222;-72
2023/08/18 01:36:13;;;;;;;7.00;6.40;;;18.10;99.90;;;;;;484574;245;28780;-72
2023/08/18 01:38:14;;;;;;;6.87;6.27;;;18.10;99.90;;;;;;484543;245;28779;-75
2023/08/18 01:40:16;;;;;;;8.43;6.27;;;18.10;99.90;;;;;;484569;245;29251;-75
2023/08/18 01:42:17;;;;;;;6.47;5.93;;;18.20;99.90;;;;;;484564;245;29260;-76
2023/08/18 01:44:18;;;;;;;6.90;6.30;;;18.10;99.90;;;;;;484554;245;29258;-75
2023/08/18 01:46:20;;;;;;;6.23;5.63;;;18.10;99.90;;;;;;484569;245;28759;-75
2023/08/18 01:48:21;;;;;;;5.83;5.33;;;18.00;99.90;;;;;;484556;245;28774;-72
2023/08/18 01:50:22;;;;;;;5.50;5.10;;;18.00;99.90;;;;;;484571;245;29305;-73
2023/08/18 01:52:23;;;;;;;8.20;4.77;;;18.00;99.90;;;;;;484562;245;29294;-75
2023/08/18 01:54:27;;;;;;;6.00;4.83;;;18.00;99.90;;;;;;484581;245;29313;-73
2023/08/18 01:56:28;;;;;;;5.60;5.10;;;18.00;99.90;;;;;;484574;245;28758;-74
2023/08/18 01:58:29;;;;;;;5.20;4.80;;;18.00;99.90;;;;;;484569;245;28809;-75
2023/08/18 02:00:30;;;;;;;6.70;6.10;;;17.90;99.90;;;;;;484544;245;28830;-72
2023/08/18 02:02:33;;;;;;;6.03;5.43;;;17.90;99.90;;;;;;484567;245;29408;-74
2023/08/18 02:04:34;;;;;;;6.07;5.47;;;17.90;99.90;;;;;;484556;245;29217;-74
2023/08/18 02:06:36;;;;;;;7.20;5.00;;;17.90;99.90;;;;;;484565;245;29213;-73
2023/08/18 02:08:38;;;;;;;6.33;5.73;;;17.80;99.90;;;;;;484542;245;29401;-72
2023/08/18 02:10:39;;;;;;;7.80;6.07;;;17.90;99.90;;;;;;484541;245;29220;-74
2023/08/18 02:12:40;;;;;;;6.57;5.97;;;17.70;99.90;;;;;;484533;245;29690;-73
2023/08/18 02:14:41;;;;;;;6.83;5.37;;;17.70;99.90;;;;;;484548;245;29237;-75
2023/08/18 02:16:43;;;;;;;6.43;5.83;;;17.70;99.90;;;;;;484551;245;28777;-74
2023/08/18 02:18:44;;;;;;;6.03;5.57;;;17.70;99.90;;;;;;484534;245;29199;-75
2023/08/18 02:20:45;;;;;;;6.10;5.60;;;17.70;99.90;;;;;;484588;245;29230;-75
2023/08/18 02:22:46;;;;;;;7.40;5.60;;;17.70;99.90;;;;;;484549;245;29378;-74
2023/08/18 02:24:48;;;;;;;5.90;5.40;;;17.70;99.90;;;;;;484582;245;29238;-74
2023/08/18 02:26:49;;;;;;;6.00;5.20;;;17.60;99.90;;;;;;484567;245;28758;-75
2023/08/18 02:28:51;;;;;;;5.53;5.03;;;17.60;99.90;;;;;;484570;245;29228;-75
2023/08/18 02:30:53;;;;;;;5.40;5.00;;;17.50;99.90;;;;;;484563;245;28840;-74
2023/08/18 02:32:54;;;;;;;7.80;5.70;;;17.60;99.90;;;;;;484561;245;29217;-75
2023/08/18 02:34:55;;;;;;;5.60;5.20;;;17.50;99.90;;;;;;484591;245;29293;-76
2023/08/18 02:36:57;;;;;;;6.57;5.97;;;17.50;99.90;;;;;;484538;245;28770;-74
2023/08/18 02:38:59;;;;;;;6.17;5.57;;;17.50;99.90;;;;;;484563;245;28850;-75
2023/08/18 02:41:01;;;;;;;9.83;5.50;;;17.50;99.90;;;;;;484585;245;29226;-75
2023/08/18 02:43:02;;;;;;;8.10;5.50;;;17.50;99.90;;;;;;484566;245;28864;-73
2023/08/18 02:45:03;;;;;;;5.40;4.90;;;17.50;99.90;;;;;;484579;245;28823;-75
2023/08/18 02:47:05;;;;;;;4.90;4.50;;;17.40;99.90;;;;;;484588;245;29279;-74
2023/08/18 02:49:06;;;;;;;6.73;5.07;;;17.40;99.90;;;;;;484614;245;29228;-74
2023/08/18 02:51:07;;;;;;;5.23;4.83;;;17.40;99.90;;;;;;484589;245;28756;-72
2023/08/18 02:53:09;;;;;;;4.83;4.43;;;17.40;99.90;;;;;;484462;245;29291;-73
2023/08/18 02:55:10;;;;;;;5.53;5.07;;;17.40;99.90;;;;;;484620;245;28757;-73
2023/08/18 02:57:12;;;;;;;6.80;5.13;;;17.40;99.90;;;;;;484594;245;29232;-73
2023/08/18 02:59:13;;;;;;;5.77;5.27;;;17.40;99.90;;;;;;484630;245;29206;-72
2023/08/18 03:01:15;;;;;;;10.60;5.30;;;17.40;99.90;;;;;;484573;245;29236;-73
2023/08/18 03:03:16;;;;;;;5.70;5.13;;;17.40;99.90;;;;;;484670;244;29305;-72
2023/08/18 03:05:17;;;;;;;7.30;6.03;;;17.40;99.90;;;;;;484613;245;29228;-74
2023/08/18 03:07:19;;;;;;;5.70;5.30;;;17.40;99.90;;;;;;484577;245;29231;-74
2023/08/18 03:09:21;;;;;;;5.57;5.07;;;17.40;99.90;;;;;;484581;245;29256;-72
2023/08/18 03:11:23;;;;;;;6.27;5.70;;;17.40;99.90;;;;;;484431;245;28794;-73
2023/08/18 03:13:24;;;;;;;6.20;5.70;;;17.30;99.90;;;;;;484677;244;29229;-74
2023/08/18 03:15:26;;;;;;;8.23;5.57;;;17.30;99.90;;;;;;484598;245;29221;-73
2023/08/18 03:17:29;;;;;;;6.60;5.90;;;17.30;99.90;;;;;;484555;245;29225;-75
2023/08/18 03:19:30;;;;;;;7.60;6.47;;;17.30;99.90;;;;;;484610;245;28756;-73
2023/08/18 03:21:32;;;;;;;6.30;5.70;;;17.30;99.90;;;;;;484543;245;28816;-75
2023/08/18 03:23:33;;;;;;;8.37;6.50;;;17.30;99.90;;;;;;484586;245;29324;-75
2023/08/18 03:25:34;;;;;;;6.40;5.80;;;17.30;99.90;;;;;;484503;245;29312;-74
2023/08/18 03:27:35;;;;;;;7.03;6.43;;;17.30;99.90;;;;;;484564;245;28756;-74
2023/08/18 03:29:37;;;;;;;7.40;5.97;;;17.20;99.90;;;;;;484571;245;29236;-75
2023/08/18 03:31:38;;;;;;;6.73;6.20;;;17.20;99.90;;;;;;484538;245;28841;-75
2023/08/18 03:33:39;;;;;;;6.27;5.67;;;17.10;99.90;;;;;;484571;245;29287;-72
2023/08/18 03:35:41;;;;;;;6.13;5.53;;;17.10;99.90;;;;;;488613;243;29182;-74
2023/08/18 03:37:42;;;;;;;6.80;5.80;;;17.00;99.90;;;;;;488937;242;29179;-73
2023/08/18 03:39:43;;;;;;;6.63;6.10;;;17.00;99.90;;;;;;484604;244;29320;-72
2023/08/18 03:41:45;;;;;;;6.30;5.70;;;17.00;99.90;;;;;;484581;245;29215;-75
2023/08/18 03:43:46;;;;;;;6.40;5.63;;;17.10;99.90;;;;;;484564;245;29245;-72
2023/08/18 03:45:47;;;;;;;6.00;5.50;;;17.10;99.90;;;;;;484594;245;28747;-74
2023/08/18 03:47:48;;;;;;;6.67;6.07;;;17.10;99.90;;;;;;484574;245;29298;-72
2023/08/18 03:49:50;;;;;;;10.87;6.60;;;17.10;99.90;;;;;;484571;245;29204;-74
2023/08/18 03:51:51;;;;;;;8.13;6.43;;;17.10;99.90;;;;;;484579;245;29221;-72
2023/08/18 03:53:52;;;;;;;6.93;6.33;;;17.10;99.90;;;;;;484577;245;28746;-72
2023/08/18 03:55:56;;;;;;;7.03;6.30;;;17.10;99.90;;;;;;484569;245;29204;-73
2023/08/18 03:57:55;;;;;;;6.37;5.87;;;17.10;99.90;;;;;;484365;245;29545;-73
2023/08/18 03:59:56;;;;;;;7.80;7.00;;;17.10;99.90;;;;;;484553;245;29205;-72
2023/08/18 04:04:03;;;;;;;17.03;6.90;;;17.10;99.90;;;;;;484555;245;29209;-73
2023/08/18 04:06:03;;;;;;;18.53;9.70;;;17.00;99.90;;;;;;484544;245;29320;-74
2023/08/18 04:08:04;;;;;;;8.63;7.73;;;16.90;99.90;;;;;;484584;245;28748;-75
2023/08/18 04:10:07;;;;;;;10.80;7.50;;;16.90;99.90;;;;;;484556;245;29308;-75
2023/08/18 04:12:08;;;;;;;11.10;8.77;;;17.00;99.90;;;;;;484541;245;28866;-76
2023/08/18 04:14:09;;;;;;;11.37;8.20;;;17.00;99.90;;;;;;484553;245;29309;-74
2023/08/18 04:16:10;;;;;;;8.97;8.07;;;17.00;99.90;;;;;;484577;245;28763;-75
2023/08/18 04:18:12;;;;;;;8.60;7.70;;;17.00;99.90;;;;;;484573;245;29280;-74
2023/08/18 04:20:13;;;;;;;8.77;7.87;;;17.00;99.90;;;;;;484573;245;28849;-74
2023/08/18 04:22:14;;;;;;;9.83;7.83;;;16.90;99.90;;;;;;484558;245;28835;-74
2023/08/18 04:24:16;;;;;;;8.03;7.30;;;17.00;99.90;;;;;;484544;245;29230;-75
2023/08/18 04:26:17;;;;;;;7.23;6.20;;;16.90;99.90;;;;;;484563;245;29313;-75
2023/08/18 04:28:18;;;;;;;7.07;6.43;;;16.80;99.90;;;;;;484557;245;28829;-75
2023/08/18 04:30:19;;;;;;;12.43;6.93;;;16.80;99.90;;;;;;484551;245;29239;-75
2023/08/18 04:32:21;;;;;;;7.00;6.00;;;16.70;99.90;;;;;;484569;245;29222;-73
2023/08/18 04:34:22;;;;;;;6.73;6.13;;;16.70;99.90;;;;;;484557;245;29524;-72
2023/08/18 04:36:23;;;;;;;7.30;6.53;;;16.70;99.90;;;;;;484577;245;29209;-71
2023/08/18 04:38:25;;;;;;;7.63;6.83;;;16.70;99.90;;;;;;484573;245;29313;-73
2023/08/18 04:40:26;;;;;;;8.50;7.60;;;16.80;99.90;;;;;;484571;245;28756;-73
2023/08/18 04:42:27;;;;;;;8.83;7.70;;;16.80;99.90;;;;;;484557;245;29309;-75
2023/08/18 04:44:28;;;;;;;11.00;8.00;;;16.80;99.90;;;;;;484569;245;29220;-75
2023/08/18 04:46:31;;;;;;;8.80;7.80;;;16.80;99.90;;;;;;484586;245;29334;-73
2023/08/18 04:48:32;;;;;;;6.67;6.00;;;16.80;99.90;;;;;;484597;245;29213;-74
2023/08/18 04:50:34;;;;;;;6.17;5.57;;;16.70;99.90;;;;;;484574;245;29282;-75
2023/08/18 04:52:36;;;;;;;6.93;6.23;;;16.70;99.90;;;;;;484254;245;28759;-74
2023/08/18 04:54:37;;;;;;;6.00;5.50;;;16.70;99.90;;;;;;484537;245;29195;-75
2023/08/18 04:56:38;;;;;;;6.37;5.40;;;16.70;99.90;;;;;;484547;245;28772;-74
2023/08/18 04:58:40;;;;;;;6.07;5.57;;;16.80;99.90;;;;;;484580;245;28828;-74
2023/08/18 05:00:41;;;;;;;7.30;6.70;;;16.80;99.90;;;;;;484557;245;29290;-75
2023/08/18 05:02:42;;;;;;;7.40;6.30;;;16.80;99.90;;;;;;484569;245;29311;-74
2023/08/18 05:04:44;;;;;;;7.63;6.83;;;16.80;99.90;;;;;;484580;245;28768;-75
2023/08/18 05:06:46;;;;;;;6.77;6.17;;;16.90;99.90;;;;;;484576;245;29316;-73
2023/08/18 05:08:47;;;;;;;7.77;6.97;;;16.80;99.90;;;;;;484561;245;28867;-74
2023/08/18 05:10:48;;;;;;;11.63;6.77;;;16.80;99.90;;;;;;484584;245;29224;-74
2023/08/18 05:12:50;;;;;;;7.00;6.40;;;16.80;99.90;;;;;;483651;245;28948;-75
2023/08/18 05:14:51;;;;;;;6.50;5.90;;;16.80;99.90;;;;;;483145;245;29476;-74
2023/08/18 05:16:52;;;;;;;6.57;6.07;;;16.90;99.90;;;;;;483063;246;29318;-74
2023/08/18 05:18:54;;;;;;;6.10;5.50;;;16.90;99.90;;;;;;483096;246;29310;-72
2023/08/18 05:20:55;;;;;;;6.90;6.20;;;16.90;99.90;;;;;;482986;246;28819;-72
2023/08/18 05:22:56;;;;;;;8.53;6.30;;;16.90;99.90;;;;;;483086;246;29336;-75
2023/08/18 05:24:58;;;;;;;7.83;6.70;;;16.90;99.90;;;;;;483074;246;28846;-76
2023/08/18 05:26:59;;;;;;;6.53;5.93;;;16.90;99.90;;;;;;483091;246;28853;-75
2023/08/18 05:29:00;;;;;;;12.20;6.90;;;16.90;99.90;;;;;;483090;243;29401;-74
2023/08/18 05:31:01;;;;;;;9.30;7.60;;;17.00;99.90;;;;;;483070;246;29322;-74
2023/08/18 05:33:03;;;;;;;8.00;7.30;;;17.00;99.90;;;;;;483072;246;29307;-72
2023/08/18 05:35:04;;;;;;;8.13;7.43;;;17.00;99.90;;;;;;483067;246;29426;-74
2023/08/18 05:37:06;;;;;;;7.27;6.57;;;17.10;99.90;;;;;;483070;246;29362;-75
2023/08/18 05:39:07;;;;;;;7.07;6.47;;;17.10;99.90;;;;;;483074;243;28870;-72
2023/08/18 05:41:08;;;;;;;19.03;7.57;;;17.20;99.90;;;;;;483076;246;28917;-73
2023/08/18 05:43:09;;;;;;;11.50;6.60;;;17.30;99.90;;;;;;483064;246;29340;-73
2023/08/18 05:45:11;;;;;;;26.63;10.73;;;17.30;99.90;;;;;;483077;246;29358;-74
2023/08/18 05:47:12;;;;;;;11.40;8.07;;;17.40;99.90;;;;;;483072;246;28763;-73
2023/08/18 05:49:13;;;;;;;12.63;8.13;;;17.50;99.90;;;;;;483072;246;29346;-75
2023/08/18 05:51:15;;;;;;;9.93;7.60;;;17.60;99.90;;;;;;483077;246;29413;-75
2023/08/18 05:53:16;;;;;;;8.90;7.37;;;17.70;99.90;;;;;;483081;246;28854;-74
2023/08/18 05:55:17;;;;;;;8.70;7.87;;;17.80;99.90;;;;;;483077;246;29412;-74
2023/08/18 05:57:18;;;;;;;8.17;7.40;;;17.80;99.90;;;;;;483071;246;29401;-74
2023/08/18 05:59:21;;;;;;;9.50;6.43;;;17.90;99.90;;;;;;483095;246;29361;-72
2023/08/18 06:01:25;;;;;;;12.90;7.27;;;17.90;99.90;;;;;;483094;246;28841;-76
2023/08/18 06:03:24;;;;;;;8.63;7.10;;;17.90;99.90;;;;;;483002;246;28958;-75
2023/08/18 06:05:27;;;;;;;7.30;6.70;;;18.00;99.90;;;;;;483069;243;29300;-74
2023/08/18 06:07:27;;;;;;;7.03;6.37;;;18.00;99.90;;;;;;483040;246;29287;-72
2023/08/18 06:09:34;;;;;;;7.10;6.50;;;18.00;99.90;;;;;;483085;246;29301;-75
2023/08/18 06:11:35;;;;;;;6.43;5.93;;;18.00;99.90;;;;;;483109;243;28962;-73
2023/08/18 06:13:37;;;;;;;7.13;6.53;;;17.90;99.90;;;;;;483078;246;29378;-73
2023/08/18 06:15:38;;;;;;;6.03;5.60;;;17.90;99.90;;;;;;483085;246;28864;-73
2023/08/18 06:17:40;;;;;;;7.47;6.77;;;17.90;99.90;;;;;;483095;243;29405;-72
2023/08/18 06:19:41;;;;;;;6.57;5.93;;;17.90;99.90;;;;;;483062;246;29347;-72
2023/08/18 06:21:43;;;;;;;6.37;5.87;;;17.90;99.90;;;;;;483083;246;29421;-73
2023/08/18 06:23:44;;;;;;;6.47;5.90;;;17.90;99.90;;;;;;483097;246;29410;-75
2023/08/18 06:25:45;;;;;;;7.60;7.00;;;17.90;99.90;;;;;;483088;246;29316;-73
2023/08/18 06:27:47;;;;;;;7.17;6.57;;;17.90;99.90;;;;;;483073;246;28948;-73
2023/08/18 06:29:48;;;;;;;7.30;6.70;;;18.00;99.90;;;;;;484016;242;29326;-75
2023/08/18 06:31:49;;;;;;;7.03;6.43;;;18.10;99.90;;;;;;491607;241;29442;-74
2023/08/18 06:33:51;;;;;;;6.90;6.30;;;18.10;99.90;;;;;;491591;242;28813;-74
2023/08/18 06:35:52;;;;;;;6.87;6.27;;;18.20;99.90;;;;;;491618;241;29871;-74
2023/08/18 06:37:53;;;;;;;7.67;6.97;;;18.20;99.90;;;;;;491626;241;29382;-74
2023/08/18 06:39:54;;;;;;;6.50;5.70;;;18.20;99.90;;;;;;491620;241;29353;-74
2023/08/18 06:41:57;;;;;;;7.23;6.63;;;18.30;99.90;;;;;;491619;241;28779;-73
2023/08/18 06:43:58;;;;;;;6.50;5.90;;;18.40;99.90;;;;;;491617;241;28822;-74
2023/08/18 06:45:59;;;;;;;7.00;6.30;;;18.40;99.90;;;;;;491620;242;29272;-76
2023/08/18 06:48:00;;;;;;;8.87;6.40;;;18.50;99.90;;;;;;491617;242;29392;-74
2023/08/18 06:50:05;;;;;;;12.10;6.80;;;18.60;99.90;;;;;;491598;242;29275;-74
2023/08/18 06:52:04;;;;;;;8.53;7.57;;;18.70;99.90;;;;;;491439;242;28940;-75
2023/08/18 06:54:05;;;;;;;8.80;6.70;;;18.80;99.90;;;;;;491591;242;29648;-75
2023/08/18 06:56:08;;;;;;;7.70;6.53;;;18.80;99.90;;;;;;491589;241;29692;-75
2023/08/18 06:58:12;;;;;;;7.73;6.93;;;18.80;99.90;;;;;;491577;241;28729;-75
2023/08/18 07:00:10;;;;;;;7.40;6.70;;;18.90;99.90;;;;;;491398;241;28921;-74
2023/08/18 07:02:11;;;;;;;6.33;5.73;;;19.00;99.90;;;;;;491585;241;29336;-75
2023/08/18 07:04:12;;;;;;;6.70;6.10;;;19.00;99.90;;;;;;491579;241;29265;-75
2023/08/18 07:06:14;;;;;;;7.47;6.80;;;19.20;99.90;;;;;;491592;241;29268;-74
2023/08/18 07:08:15;;;;;;;7.30;6.70;;;19.20;99.90;;;;;;491585;241;28804;-75
2023/08/18 07:10:16;;;;;;;7.10;6.30;;;19.20;99.90;;;;;;491597;242;29268;-75
2023/08/18 07:12:19;;;;;;;6.90;6.30;;;19.30;99.90;;;;;;491587;241;28815;-75
2023/08/18 07:14:21;;;;;;;7.70;6.23;;;19.40;99.90;;;;;;491567;241;28939;-74
2023/08/18 07:16:23;;;;;;;6.10;5.67;;;19.40;99.90;;;;;;491604;241;28829;-73
2023/08/18 07:18:24;;;;;;;5.83;5.43;;;19.40;99.90;;;;;;491592;241;28891;-75
2023/08/18 07:20:25;;;;;;;6.20;5.70;;;19.50;99.90;;;;;;491600;241;29356;-74
2023/08/18 07:22:27;;;;;;;6.70;5.97;;;19.60;99.90;;;;;;491589;241;29220;-74
2023/08/18 07:24:29;;;;;;;6.33;5.83;;;19.60;99.90;;;;;;491561;241;29377;-73
2023/08/18 07:26:31;;;;;;;7.20;6.70;;;19.70;99.90;;;;;;491587;241;28807;-74
2023/08/18 07:28:31;;;;;;;6.73;6.20;;;19.80;99.90;;;;;;491542;241;29377;-74
2023/08/18 07:30:33;;;;;;;6.47;5.87;;;19.80;99.90;;;;;;491584;241;29284;-74
2023/08/18 07:32:36;;;;;;;8.07;5.67;;;19.90;99.90;;;;;;491447;241;29230;-74
2023/08/18 07:34:37;;;;;;;6.90;6.17;;;19.90;99.90;;;;;;489789;242;28857;-75
2023/08/18 07:36:39;;;;;;;6.97;6.37;;;20.10;99.90;;;;;;491573;241;29264;-74
2023/08/18 07:38:40;;;;;;;7.50;6.90;;;20.10;99.90;;;;;;491574;241;29268;-74
2023/08/18 07:40:41;;;;;;;7.90;7.17;;;20.20;99.90;;;;;;491580;241;29257;-74
2023/08/18 07:42:44;;;;;;;6.77;6.17;;;20.30;99.90;;;;;;491561;241;29354;-75
2023/08/18 07:44:44;;;;;;;7.70;7.00;;;20.30;99.90;;;;;;491512;241;29245;-76
2023/08/18 07:46:45;;;;;;;7.00;6.40;;;20.30;99.90;;;;;;490396;241;29387;-75
2023/08/18 07:48:46;;;;;;;7.00;6.40;;;20.40;99.90;;;;;;489775;242;29278;-73
2023/08/18 07:50:47;;;;;;;7.40;6.70;;;20.50;99.90;;;;;;490736;241;28791;-76
2023/08/18 07:52:49;;;;;;;6.73;6.13;;;20.50;99.90;;;;;;490994;241;28824;-74
2023/08/18 07:54:53;;;;;;;7.60;6.80;;;20.50;99.90;;;;;;482152;245;28765;-76
2023/08/18 07:56:56;;;;;;;8.30;7.60;;;20.60;99.90;;;;;;482478;245;28753;-74
2023/08/18 07:58:57;;;;;;;9.37;7.83;;;20.70;99.90;;;;;;483076;246;28871;-76
2023/08/18 08:00:59;;;;;;;7.97;7.17;;;20.80;99.90;;;;;;483036;246;29422;-75
2023/08/18 08:03:02;;;;;;;8.67;7.77;;;21.00;99.90;;;;;;483072;246;29351;-74
2023/08/18 08:05:06;;;;;;;8.33;7.43;;;21.10;99.90;;;;;;483050;246;29343;-75
2023/08/18 08:07:08;;;;;;;9.10;8.13;;;21.20;99.90;;;;;;483134;242;28858;-76
2023/08/18 08:09:10;;;;;;;7.80;7.10;;;21.40;99.90;;;;;;483065;246;29396;-75
2023/08/18 08:11:12;;;;;;;9.37;7.73;;;21.70;99.90;;;;;;483078;246;29375;-75
2023/08/18 08:13:13;;;;;;;7.77;6.87;;;21.70;99.90;;;;;;483016;246;29306;-75
2023/08/18 08:15:14;;;;;;;7.97;7.17;;;21.90;99.90;;;;;;483068;246;29188;-75
2023/08/18 08:17:17;;;;;;;9.17;7.87;;;22.30;99.90;;;;;;483071;246;28962;-73
2023/08/18 08:19:18;;;;;;;7.53;6.83;;;22.30;99.90;;;;;;483071;246;29313;-75
2023/08/18 08:21:20;;;;;;;8.00;7.20;;;22.40;99.90;;;;;;483068;246;28850;-74
2023/08/18 08:23:22;;;;;;;9.13;6.80;;;22.40;99.90;;;;;;483074;246;28827;-74
2023/08/18 08:25:23;;;;;;;9.03;7.00;;;22.60;99.90;;;;;;483084;246;28749;-74
2023/08/18 08:27:24;;;;;;;8.00;6.50;;;22.70;99.90;;;;;;483089;246;29310;-74
2023/08/18 08:29:25;;;;;;;9.60;6.70;;;22.60;99.90;;;;;;483069;246;29815;-74
2023/08/18 08:31:26;;;;;;;8.00;7.30;;;22.70;99.90;;;;;;483090;246;29429;-75
2023/08/18 08:33:28;;;;;;;6.77;6.07;;;22.90;99.90;;;;;;483082;246;28859;-74
2023/08/18 08:35:29;;;;;;;7.20;6.50;;;22.70;99.90;;;;;;483078;246;28732;-74
2023/08/18 08:37:30;;;;;;;8.60;7.13;;;22.70;99.90;;;;;;483075;246;28740;-74
2023/08/18 08:39:32;;;;;;;8.30;6.97;;;22.70;99.90;;;;;;483078;246;28863;-75
2023/08/18 08:41:34;;;;;;;9.40;6.83;;;22.70;99.90;;;;;;483072;246;29227;-74
2023/08/18 08:43:35;;;;;;;11.50;7.10;;;23.00;99.90;;;;;;483080;246;28766;-74
2023/08/18 08:45:38;;;;;;;6.90;6.20;;;22.90;99.90;;;;;;483077;246;29328;-74
2023/08/18 08:47:39;;;;;;;8.10;7.20;;;22.90;99.90;;;;;;483040;246;28755;-76
2023/08/18 08:49:41;;;;;;;8.10;6.80;;;22.70;99.90;;;;;;483079;246;29393;-74
2023/08/18 08:51:44;;;;;;;6.70;6.10;;;22.70;99.90;;;;;;483142;246;28890;-74
2023/08/18 08:53:45;;;;;;;9.83;6.37;;;22.80;99.90;;;;;;482969;246;29276;-75
2023/08/18 08:55:47;;;;;;;6.97;6.33;;;22.90;99.90;;;;;;483076;246;28744;-75
2023/08/18 08:57:48;;;;;;;7.67;6.67;;;22.90;99.90;;;;;;483076;246;28928;-74
2023/08/18 08:59:49;;;;;;;6.80;6.30;;;23.10;99.90;;;;;;483083;246;29302;-75
2023/08/18 09:01:52;;;;;;;10.10;6.90;;;23.00;99.90;;;;;;483112;246;29309;-74
2023/08/18 09:03:53;;;;;;;7.47;6.70;;;23.10;99.90;;;;;;483064;246;29293;-75
2023/08/18 09:05:54;;;;;;;7.20;6.47;;;23.10;99.90;;;;;;483080;246;29429;-75
2023/08/18 09:07:55;;;;;;;7.03;6.33;;;23.10;99.90;;;;;;483082;246;28843;-75
2023/08/18 09:09:56;;;;;;;6.60;5.90;;;23.30;99.90;;;;;;483077;246;28837;-75
2023/08/18 09:11:59;;;;;;;6.93;6.33;;;23.40;99.90;;;;;;483090;246;29380;-76
2023/08/18 09:13:59;;;;;;;9.73;6.40;;;23.30;99.90;;;;;;483015;246;29208;-75
2023/08/18 09:16:00;;;;;;;8.97;6.60;;;23.30;99.90;;;;;;483072;246;29308;-75
2023/08/18 09:18:02;;;;;;;11.60;6.60;;;23.80;99.90;;;;;;483077;246;29318;-75
2023/08/18 09:20:03;;;;;;;10.30;5.67;;;23.70;99.90;;;;;;483078;246;28887;-76
2023/08/18 09:22:04;;;;;;;6.80;5.97;;;23.70;99.90;;;;;;483072;246;29336;-76
2023/08/18 09:24:05;;;;;;;7.20;6.17;;;23.50;99.90;;;;;;483075;246;28862;-75
2023/08/18 09:26:08;;;;;;;6.00;5.10;;;23.70;99.90;;;;;;483097;246;29285;-75
2023/08/18 09:28:08;;;;;;;13.90;5.47;;;23.80;99.90;;;;;;483061;246;29316;-75
2023/08/18 09:30:09;;;;;;;8.83;5.37;;;24.40;99.90;;;;;;483101;246;28861;-75
2023/08/18 09:32:11;;;;;;;5.93;5.37;;;24.60;99.90;;;;;;483097;246;28855;-75
2023/08/18 09:34:12;;;;;;;7.23;5.50;;;24.50;99.90;;;;;;483097;246;29389;-75
2023/08/18 09:36:13;;;;;;;8.50;5.73;;;24.30;99.90;;;;;;483091;246;29791;-75
2023/08/18 09:38:14;;;;;;;8.37;5.60;;;24.10;99.90;;;;;;483104;246;28858;-75
2023/08/18 09:40:16;;;;;;;6.40;5.40;;;24.10;99.90;;;;;;483089;246;29347;-75
2023/08/18 09:42:17;;;;;;;15.17;5.23;;;24.10;99.90;;;;;;483093;246;29411;-76
2023/08/18 09:44:18;;;;;;;9.23;5.50;;;24.10;99.90;;;;;;483094;246;29389;-75
2023/08/18 09:46:20;;;;;;;6.93;4.60;;;24.30;99.90;;;;;;483087;246;29330;-75
2023/08/18 09:48:21;;;;;;;10.27;5.10;;;24.40;99.90;;;;;;483158;246;28953;-75
2023/08/18 09:50:23;;;;;;;7.27;5.17;;;24.50;99.90;;;;;;483096;246;28947;-74
2023/08/18 09:52:24;;;;;;;8.30;5.30;;;24.30;99.90;;;;;;483038;246;28922;-75
2023/08/18 09:54:25;;;;;;;7.67;4.90;;;24.30;99.90;;;;;;483102;246;29293;-76
2023/08/18 09:56:28;;;;;;;5.37;4.80;;;24.30;99.90;;;;;;483078;246;29315;-75
2023/08/18 09:58:29;;;;;;;5.63;4.50;;;24.20;99.90;;;;;;483089;246;28920;-76
2023/08/18 10:00:31;;;;;;;12.73;4.60;;;24.30;99.90;;;;;;483082;246;28861;-76
2023/08/18 10:02:33;;;;;;;7.80;5.07;;;24.50;99.90;;;;;;483097;246;29270;-76
2023/08/18 10:04:33;;;;;;;5.63;4.60;;;24.80;99.90;;;;;;483079;246;29334;-74
2023/08/18 10:06:36;;;;;;;7.47;4.80;;;24.80;99.90;;;;;;483101;246;29294;-76
2023/08/18 10:08:36;;;;;;;6.77;5.13;;;24.70;99.90;;;;;;483025;246;29341;-75
2023/08/18 10:10:37;;;;;;;9.80;5.37;;;24.80;99.90;;;;;;483088;246;28922;-75
2023/08/18 10:12:38;;;;;;;6.50;5.27;;;24.70;99.90;;;;;;483070;242;29418;-75
2023/08/18 10:14:40;;;;;;;7.60;5.30;;;24.80;99.90;;;;;;483121;246;29412;-75
2023/08/18 10:16:41;;;;;;;7.00;5.10;;;24.80;99.90;;;;;;483089;245;28846;-75
2023/08/18 10:18:42;;;;;;;6.83;4.80;;;24.90;99.90;;;;;;487181;237;28870;-75
2023/08/18 10:20:43;;;;;;;7.60;4.70;;;24.80;99.90;;;;;;483100;244;28859;-75
2023/08/18 10:22:45;;;;;;;5.10;4.60;;;25.00;99.90;;;;;;483089;246;28826;-75
2023/08/18 10:24:47;;;;;;;11.27;4.90;;;25.10;99.90;;;;;;483155;245;28842;-73
2023/08/18 10:26:48;;;;;;;7.73;5.10;;;25.40;99.90;;;;;;483094;246;28854;-73
2023/08/18 10:28:51;;;;;;;9.07;5.00;;;25.50;99.90;;;;;;483080;246;29300;-75
2023/08/18 10:30:51;;;;;;;8.70;5.20;;;25.50;99.90;;;;;;483051;246;28883;-74
2023/08/18 10:32:54;;;;;;;7.23;4.53;;;25.40;99.90;;;;;;483060;246;29345;-75